sensor_id;sensor_type;location;lat;lon;timestamp;temperature;humidity
20504;DHT22;10410;51.046;6.980;2023-12-22T00:03:32;4.80;99.90
20504;DHT22;10410;51.046;6.980;2023-12-22T00:10:33;4.60;99.90
20504;DHT22;10410;51.046;6.980;2023-12-22T00:17:33;4.50;99.90
20504;DHT22;10410;51.046;6.980;2023-12-22T00:24:34;4.60;99.90
20504;DHT22;10410;51.046;6.980;2023-12-22T00:31:34;4.70;99.90
20504;DHT22;10410;51.046;6.980;2023-12-22T00:38:35;4.80;99.90
20504;DHT22;10410;51.046;6.980;2023-12-22T00:45:36;4.90;99.90
20504;DHT22;10410;51.046;6.980;2023-12-22T00:52:36;5.00;99.90
20504;DHT22;10410;51.046;6.980;2023-12-22T00:59:37;5.10;99.90
20504;DHT22;10410;51.046;6.980;2023-12-22T01:06:38;5.30;99.90
20504;DHT22;10410;51.046;6.980;2023-12-22T01:13:39;5.50;99.90
20504;DHT22;10410;51.046;6.980;2023-12-22T01:20:40;5.60;99.90
20504;DHT22;10410;51.046;6.980;2023-12-22T01:27:40;5.40;99.90
20504;DHT22;10410;51.046;6.980;2023-12-22T01:34:41;5.30;99.90
20504;DHT22;10410;51.046;6.980;2023-12-22T01:41:41;5.30;99.90
20504;DHT22;10410;51.046;6.980;2023-12-22T01:48:41;5.30;99.90
20504;DHT22;10410;51.046;6.980;2023-12-22T01:55:42;5.30;99.90
20504;DHT22;10410;51.046;6.980;2023-12-22T02:02:43;5.40;99.90
20504;DHT22;10410;51.046;6.980;2023-12-22T02:09:43;5.50;99.90
20504;DHT22;10410;51.046;6.980;2023-12-22T02:16:54;5.50;99.90
20504;DHT22;10410;51.046;6.980;2023-12-22T02:23:55;5.50;99.90
20504;DHT22;10410;51.046;6.980;2023-12-22T02:31:37;5.50;99.90
20504;DHT22;10410;51.046;6.980;2023-12-22T02:38:45;5.60;99.90
20504;DHT22;10410;51.046;6.980;2023-12-22T02:45:50;5.60;99.90
20504;DHT22;10410;51.046;6.980;2023-12-22T02:52:51;5.70;99.90
20504;DHT22;10410;51.046;6.980;2023-12-22T02:59:52;5.60;99.90
20504;DHT22;10410;51.046;6.980;2023-12-22T03:06:52;5.60;99.90
20504;DHT22;10410;51.046;6.980;2023-12-22T03:13:52;5.60;99.90
20504;DHT22;10410;51.046;6.980;2023-12-22T03:20:53;5.50;99.90
20504;DHT22;10410;51.046;6.980;2023-12-22T03:27:53;5.50;99.90
20504;DHT22;10410;51.046;6.980;2023-12-22T03:34:54;5.50;99.90
20504;DHT22;10410;51.046;6.980;2023-12-22T03:41:54;5.50;99.90
20504;DHT22;10410;51.046;6.980;2023-12-22T03:48:55;5.40;99.90
20504;DHT22;10410;51.046;6.980;2023-12-22T03:55:55;5.40;99.90
20504;DHT22;10410;51.046;6.980;2023-12-22T04:02:56;5.40;99.90
20504;DHT22;10410;51.046;6.980;2023-12-22T04:09:58;5.50;99.90
20504;DHT22;10410;51.046;6.980;2023-12-22T04:16:58;5.50;99.90
20504;DHT22;10410;51.046;6.980;2023-12-22T04:23:59;5.60;99.90
20504;DHT22;10410;51.046;6.980;2023-12-22T04:30:59;5.90;99.90
20504;DHT22;10410;51.046;6.980;2023-12-22T04:37:59;6.10;99.90
20504;DHT22;10410;51.046;6.980;2023-12-22T04:45:00;6.30;99.90
20504;DHT22;10410;51.046;6.980;2023-12-22T04:52:00;6.40;99.90
20504;DHT22;10410;51.046;6.980;2023-12-22T04:59:02;6.20;99.90
20504;DHT22;10410;51.046;6.980;2023-12-22T05:06:03;6.00;99.90
20504;DHT22;10410;51.046;6.980;2023-12-22T05:13:04;5.90;99.90
20504;DHT22;10410;51.046;6.980;2023-12-22T05:20:05;6.10;99.90
20504;DHT22;10410;51.046;6.980;2023-12-22T05:27:07;6.50;99.90
20504;DHT22;10410;51.046;6.980;2023-12-22T05:34:07;6.80;99.90
20504;DHT22;10410;51.046;6.980;2023-12-22T05:41:10;7.00;99.90
20504;DHT22;10410;51.046;6.980;2023-12-22T05:48:10;7.20;99.90
20504;DHT22;10410;51.046;6.980;2023-12-22T05:55:11;7.30;99.90
20504;DHT22;10410;51.046;6.980;2023-12-22T06:02:12;7.50;99.90
20504;DHT22;10410;51.046;6.980;2023-12-22T06:09:13;7.60;99.90
20504;DHT22;10410;51.046;6.980;2023-12-22T06:16:14;7.70;99.90
20504;DHT22;10410;51.046;6.980;2023-12-22T06:23:15;7.80;99.90
20504;DHT22;10410;51.046;6.980;2023-12-22T06:30:15;7.80;99.90
20504;DHT22;10410;51.046;6.980;2023-12-22T06:37:16;7.90;99.90
20504;DHT22;10410;51.046;6.980;2023-12-22T06:44:17;7.80;99.90
20504;DHT22;10410;51.046;6.980;2023-12-22T06:51:21;7.90;99.90
20504;DHT22;10410;51.046;6.980;2023-12-22T06:58:22;7.90;99.90
20504;DHT22;10410;51.046;6.980;2023-12-22T07:05:32;7.90;99.90
20504;DHT22;10410;51.046;6.980;2023-12-22T07:12:33;7.90;99.90
20504;DHT22;10410;51.046;6.980;2023-12-22T07:19:33;7.80;99.90
20504;DHT22;10410;51.046;6.980;2023-12-22T07:26:35;7.70;99.90
20504;DHT22;10410;51.046;6.980;2023-12-22T07:33:37;7.50;99.90
20504;DHT22;10410;51.046;6.980;2023-12-22T07:40:37;7.30;99.90
20504;DHT22;10410;51.046;6.980;2023-12-22T07:47:39;6.90;99.90
20504;DHT22;10410;51.046;6.980;2023-12-22T07:54:39;6.50;99.90
20504;DHT22;10410;51.046;6.980;2023-12-22T08:01:40;6.50;99.90
20504;DHT22;10410;51.046;6.980;2023-12-22T08:08:40;6.60;99.90
20504;DHT22;10410;51.046;6.980;2023-12-22T08:15:40;6.50;99.90
20504;DHT22;10410;51.046;6.980;2023-12-22T08:22:41;6.70;99.90
20504;DHT22;10410;51.046;6.980;2023-12-22T08:29:46;6.90;99.90
20504;DHT22;10410;51.046;6.980;2023-12-22T08:36:46;7.00;99.90
20504;DHT22;10410;51.046;6.980;2023-12-22T08:43:46;7.20;99.90
20504;DHT22;10410;51.046;6.980;2023-12-22T08:50:47;7.40;99.90
20504;DHT22;10410;51.046;6.980;2023-12-22T08:57:47;7.60;99.90
20504;DHT22;10410;51.046;6.980;2023-12-22T09:04:58;7.70;99.90
20504;DHT22;10410;51.046;6.980;2023-12-22T09:11:59;7.80;99.90
20504;DHT22;10410;51.046;6.980;2023-12-22T09:19:00;7.80;99.90
20504;DHT22;10410;51.046;6.980;2023-12-22T09:26:00;7.90;99.90
20504;DHT22;10410;51.046;6.980;2023-12-22T09:33:01;8.00;99.90
20504;DHT22;10410;51.046;6.980;2023-12-22T09:40:01;8.10;99.90
20504;DHT22;10410;51.046;6.980;2023-12-22T09:47:04;8.20;99.90
20504;DHT22;10410;51.046;6.980;2023-12-22T09:54:05;8.30;99.90
20504;DHT22;10410;51.046;6.980;2023-12-22T10:01:07;8.30;99.90
20504;DHT22;10410;51.046;6.980;2023-12-22T10:08:09;8.40;99.90
20504;DHT22;10410;51.046;6.980;2023-12-22T10:15:14;8.50;99.90
20504;DHT22;10410;51.046;6.980;2023-12-22T10:22:14;8.50;99.90
20504;DHT22;10410;51.046;6.980;2023-12-22T10:29:15;8.60;99.90
20504;DHT22;10410;51.046;6.980;2023-12-22T10:36:16;8.70;99.90
20504;DHT22;10410;51.046;6.980;2023-12-22T10:43:17;8.70;99.90
20504;DHT22;10410;51.046;6.980;2023-12-22T10:50:19;8.70;99.90
20504;DHT22;10410;51.046;6.980;2023-12-22T10:57:20;8.70;99.90
20504;DHT22;10410;51.046;6.980;2023-12-22T11:04:21;8.70;99.90
20504;DHT22;10410;51.046;6.980;2023-12-22T11:11:27;8.80;99.90
20504;DHT22;10410;51.046;6.980;2023-12-22T11:18:30;8.80;99.90
20504;DHT22;10410;51.046;6.980;2023-12-22T11:25:31;8.80;99.90
20504;DHT22;10410;51.046;6.980;2023-12-22T11:32:34;8.90;99.90
20504;DHT22;10410;51.046;6.980;2023-12-22T11:39:34;9.00;99.90
20504;DHT22;10410;51.046;6.980;2023-12-22T11:46:35;9.00;99.90
20504;DHT22;10410;51.046;6.980;2023-12-22T11:53:35;9.10;99.90
20504;DHT22;10410;51.046;6.980;2023-12-22T12:14:50;9.30;99.90
20504;DHT22;10410;51.046;6.980;2023-12-22T12:21:54;9.30;99.90
20504;DHT22;10410;51.046;6.980;2023-12-22T12:28:55;9.40;99.90
20504;DHT22;10410;51.046;6.980;2023-12-22T12:35:59;9.50;99.90
20504;DHT22;10410;51.046;6.980;2023-12-22T12:43:01;9.50;99.90
20504;DHT22;10410;51.046;6.980;2023-12-22T12:50:01;9.60;99.90
20504;DHT22;10410;51.046;6.980;2023-12-22T12:57:03;9.70;99.90
20504;DHT22;10410;51.046;6.980;2023-12-22T13:04:04;9.80;99.90
20504;DHT22;10410;51.046;6.980;2023-12-22T13:11:04;9.90;99.90
20504;DHT22;10410;51.046;6.980;2023-12-22T13:18:05;9.80;99.90
20504;DHT22;10410;51.046;6.980;2023-12-22T13:25:06;9.70;99.90
20504;DHT22;10410;51.046;6.980;2023-12-22T13:32:06;9.70;99.90
20504;DHT22;10410;51.046;6.980;2023-12-22T13:39:07;9.60;99.90
20504;DHT22;10410;51.046;6.980;2023-12-22T13:46:08;9.60;99.90
20504;DHT22;10410;51.046;6.980;2023-12-22T13:53:09;9.70;99.90
20504;DHT22;10410;51.046;6.980;2023-12-22T14:07:19;9.80;99.90
20504;DHT22;10410;51.046;6.980;2023-12-22T14:14:20;9.80;99.90
20504;DHT22;10410;51.046;6.980;2023-12-22T14:21:20;9.80;99.90
20504;DHT22;10410;51.046;6.980;2023-12-22T14:28:21;9.40;99.90
20504;DHT22;10410;51.046;6.980;2023-12-22T14:35:22;9.30;99.90
20504;DHT22;10410;51.046;6.980;2023-12-22T14:42:22;9.20;99.90
20504;DHT22;10410;51.046;6.980;2023-12-22T14:49:23;9.20;99.90
20504;DHT22;10410;51.046;6.980;2023-12-22T14:56:23;9.10;99.90
20504;DHT22;10410;51.046;6.980;2023-12-22T15:03:24;9.20;99.90
20504;DHT22;10410;51.046;6.980;2023-12-22T15:10:24;9.20;99.90
20504;DHT22;10410;51.046;6.980;2023-12-22T15:17:25;9.30;99.90
20504;DHT22;10410;51.046;6.980;2023-12-22T15:24:25;9.20;99.90
20504;DHT22;10410;51.046;6.980;2023-12-22T15:31:26;9.10;99.90
20504;DHT22;10410;51.046;6.980;2023-12-22T15:38:27;9.20;99.90
20504;DHT22;10410;51.046;6.980;2023-12-22T15:45:28;9.10;99.90
20504;DHT22;10410;51.046;6.980;2023-12-22T15:52:28;9.10;99.90
20504;DHT22;10410;51.046;6.980;2023-12-22T15:59:29;9.20;99.90
20504;DHT22;10410;51.046;6.980;2023-12-22T16:06:30;9.20;99.90
20504;DHT22;10410;51.046;6.980;2023-12-22T16:13:31;9.20;99.90
20504;DHT22;10410;51.046;6.980;2023-12-22T16:20:32;9.20;99.90
20504;DHT22;10410;51.046;6.980;2023-12-22T16:27:33;9.20;99.90
20504;DHT22;10410;51.046;6.980;2023-12-22T16:34:34;9.20;99.90
20504;DHT22;10410;51.046;6.980;2023-12-22T16:41:36;9.20;99.90
20504;DHT22;10410;51.046;6.980;2023-12-22T16:48:38;9.20;99.90
20504;DHT22;10410;51.046;6.980;2023-12-22T16:55:38;9.30;99.90
20504;DHT22;10410;51.046;6.980;2023-12-22T17:02:39;9.30;99.90
20504;DHT22;10410;51.046;6.980;2023-12-22T17:09:40;9.40;99.90
20504;DHT22;10410;51.046;6.980;2023-12-22T17:16:40;9.50;99.90
20504;DHT22;10410;51.046;6.980;2023-12-22T17:23:41;9.60;99.90
20504;DHT22;10410;51.046;6.980;2023-12-22T17:30:42;9.60;99.90
20504;DHT22;10410;51.046;6.980;2023-12-22T17:37:43;9.70;99.90
20504;DHT22;10410;51.046;6.980;2023-12-22T17:44:44;9.70;99.90
20504;DHT22;10410;51.046;6.980;2023-12-22T17:51:44;9.70;99.90
20504;DHT22;10410;51.046;6.980;2023-12-22T17:58:44;9.70;99.90
20504;DHT22;10410;51.046;6.980;2023-12-22T18:05:45;9.70;99.90
20504;DHT22;10410;51.046;6.980;2023-12-22T18:12:46;9.80;99.90
20504;DHT22;10410;51.046;6.980;2023-12-22T18:19:46;9.80;99.90
20504;DHT22;10410;51.046;6.980;2023-12-22T18:26:47;9.80;99.90
20504;DHT22;10410;51.046;6.980;2023-12-22T18:33:47;9.80;99.90
20504;DHT22;10410;51.046;6.980;2023-12-22T18:40:48;9.90;99.90
20504;DHT22;10410;51.046;6.980;2023-12-22T18:47:48;9.90;99.90
20504;DHT22;10410;51.046;6.980;2023-12-22T18:54:50;9.90;99.90
20504;DHT22;10410;51.046;6.980;2023-12-22T19:01:50;9.90;99.90
20504;DHT22;10410;51.046;6.980;2023-12-22T19:09:10;9.90;99.90
20504;DHT22;10410;51.046;6.980;2023-12-22T19:16:12;9.90;99.90
20504;DHT22;10410;51.046;6.980;2023-12-22T19:23:12;9.90;99.90
20504;DHT22;10410;51.046;6.980;2023-12-22T19:30:13;10.00;99.90
20504;DHT22;10410;51.046;6.980;2023-12-22T19:37:14;10.10;99.90
20504;DHT22;10410;51.046;6.980;2023-12-22T19:44:18;10.10;99.90
20504;DHT22;10410;51.046;6.980;2023-12-22T19:51:19;10.10;99.90
20504;DHT22;10410;51.046;6.980;2023-12-22T19:58:19;10.10;99.90
20504;DHT22;10410;51.046;6.980;2023-12-22T20:05:19;10.10;99.90
20504;DHT22;10410;51.046;6.980;2023-12-22T20:12:21;10.00;99.90
20504;DHT22;10410;51.046;6.980;2023-12-22T20:19:23;9.70;99.90
20504;DHT22;10410;51.046;6.980;2023-12-22T20:26:23;9.50;99.90
20504;DHT22;10410;51.046;6.980;2023-12-22T20:33:24;9.40;99.90
20504;DHT22;10410;51.046;6.980;2023-12-22T20:40:24;8.90;99.90
20504;DHT22;10410;51.046;6.980;2023-12-22T20:47:25;8.30;99.90
20504;DHT22;10410;51.046;6.980;2023-12-22T20:54:26;8.30;99.90
20504;DHT22;10410;51.046;6.980;2023-12-22T21:01:28;8.70;99.90
20504;DHT22;10410;51.046;6.980;2023-12-22T21:08:29;9.00;99.90
20504;DHT22;10410;51.046;6.980;2023-12-22T21:15:31;9.10;99.90
20504;DHT22;10410;51.046;6.980;2023-12-22T21:22:31;9.10;99.90
20504;DHT22;10410;51.046;6.980;2023-12-22T21:29:36;8.80;99.90
20504;DHT22;10410;51.046;6.980;2023-12-22T21:36:36;8.60;99.90
20504;DHT22;10410;51.046;6.980;2023-12-22T21:43:37;8.70;99.90
20504;DHT22;10410;51.046;6.980;2023-12-22T21:50:37;8.80;99.90
20504;DHT22;10410;51.046;6.980;2023-12-22T21:57:38;8.30;99.90
20504;DHT22;10410;51.046;6.980;2023-12-22T22:04:39;7.80;99.90
20504;DHT22;10410;51.046;6.980;2023-12-22T22:11:40;7.60;99.90
20504;DHT22;10410;51.046;6.980;2023-12-22T22:18:41;7.40;99.90
20504;DHT22;10410;51.046;6.980;2023-12-22T22:25:42;7.40;99.90
20504;DHT22;10410;51.046;6.980;2023-12-22T22:32:42;7.40;99.90
20504;DHT22;10410;51.046;6.980;2023-12-22T22:39:43;7.40;99.90
20504;DHT22;10410;51.046;6.980;2023-12-22T22:46:43;7.40;99.90
20504;DHT22;10410;51.046;6.980;2023-12-22T22:53:44;7.40;99.90
20504;DHT22;10410;51.046;6.980;2023-12-22T23:00:44;7.40;99.90
20504;DHT22;10410;51.046;6.980;2023-12-22T23:07:45;7.40;99.90
20504;DHT22;10410;51.046;6.980;2023-12-22T23:14:45;7.40;99.90
20504;DHT22;10410;51.046;6.980;2023-12-22T23:21:46;7.50;99.90
20504;DHT22;10410;51.046;6.980;2023-12-22T23:28:47;7.50;99.90
20504;DHT22;10410;51.046;6.980;2023-12-22T23:35:47;7.40;99.90
20504;DHT22;10410;51.046;6.980;2023-12-22T23:42:48;7.40;99.90
20504;DHT22;10410;51.046;6.980;2023-12-22T23:49:49;7.40;99.90
20504;DHT22;10410;51.046;6.980;2023-12-22T23:56:50;7.40;99.90
